Time;durP1;ratioP1;P1;durP2;ratioP2;P2;SDS_P1;SDS_P2;PMS_P1;PMS_P2;Temp;Humidity;BMP_temperature;BMP_pressure;BME280_temperature;BME280_humidity;BME280_pressure;Samples;Min_cycle;Max_cycle;Signal;HPM_P1;HPM_P2
2021/01/23 06:02:05;;;;;;;19.40;9.97;;;2.10;97.30;;;;;;5349046;23;20485;-73
2021/01/23 06:04:31;;;;;;;24.47;10.60;;;2.10;97.30;;;;;;4921140;29;20413;-73
2021/01/23 06:06:58;;;;;;;24.70;11.03;;;2.00;97.30;;;;;;4919472;29;20601;-73
2021/01/23 06:09:42;;;;;;;20.87;10.37;;;1.90;97.30;;;;;;4919240;29;20533;-73
2021/01/23 06:12:34;;;;;;;22.13;10.50;;;1.90;97.30;;;;;;4904327;29;20493;-72
2021/01/23 06:14:59;;;;;;;20.63;8.67;;;1.80;97.30;;;;;;4899225;29;20425;-72
2021/01/23 06:17:47;;;;;;;22.07;10.37;;;1.70;97.30;;;;;;4900323;29;20464;-72
2021/01/23 06:20:41;;;;;;;19.97;10.00;;;1.60;97.30;;;;;;4901429;29;20181;-74
2021/01/23 06:23:07;;;;;;;20.57;9.27;;;1.60;97.30;;;;;;4901570;29;20432;-72
2021/01/23 06:25:56;;;;;;;23.33;10.80;;;1.50;97.30;;;;;;4900213;29;20950;-71
2021/01/23 06:28:22;;;;;;;20.10;9.97;;;1.50;97.30;;;;;;4898368;29;20960;-71
2021/01/23 06:30:52;;;;;;;23.10;10.27;;;1.50;97.30;;;;;;4900880;29;20425;-71
2021/01/23 06:33:23;;;;;;;24.63;11.80;;;1.40;97.30;;;;;;4899930;29;20200;-71
2021/01/23 06:36:10;;;;;;;21.23;9.70;;;1.40;97.30;;;;;;4901238;29;20421;-71
2021/01/23 06:38:37;;;;;;;19.80;10.30;;;1.40;97.30;;;;;;4899909;29;20433;-71
2021/01/23 06:41:32;;;;;;;17.40;9.33;;;1.40;97.30;;;;;;4900208;29;20445;-71
2021/01/23 06:44:08;;;;;;;18.10;9.33;;;1.40;97.30;;;;;;4899540;29;20465;-71
2021/01/23 06:46:35;;;;;;;23.20;10.67;;;1.30;97.30;;;;;;4899815;29;20425;-71
2021/01/23 06:49:02;;;;;;;25.57;10.90;;;1.30;97.30;;;;;;4899532;29;20489;-71
2021/01/23 06:51:28;;;;;;;23.80;10.00;;;1.30;97.30;;;;;;4900624;29;20503;-70
2021/01/23 06:54:13;;;;;;;21.83;9.73;;;1.30;97.30;;;;;;4899550;29;20445;-71
2021/01/23 06:56:46;;;;;;;19.80;9.77;;;1.30;97.30;;;;;;4899267;29;20569;-71
2021/01/23 06:59:25;;;;;;;18.67;9.40;;;1.20;97.30;;;;;;4899560;29;20425;-70
2021/01/23 07:02:13;;;;;;;24.20;10.50;;;1.20;97.30;;;;;;4898899;29;20817;-70
2021/01/23 07:04:52;;;;;;;20.37;10.20;;;1.20;97.30;;;;;;4903023;29;20416;-71
2021/01/23 07:07:18;;;;;;;27.37;11.73;;;1.20;97.30;;;;;;4899581;29;20409;-72
2021/01/23 07:09:52;;;;;;;21.60;10.70;;;1.20;97.30;;;;;;4900012;29;20457;-70
2021/01/23 07:12:37;;;;;;;29.50;12.27;;;1.20;97.30;;;;;;4899640;29;21333;-72
2021/01/23 07:15:06;;;;;;;30.03;13.30;;;1.20;97.30;;;;;;4898645;29;20421;-70
2021/01/23 07:17:35;;;;;;;30.90;14.37;;;1.10;97.30;;;;;;4907097;29;20410;-71
2021/01/23 07:20:13;;;;;;;29.70;13.20;;;1.10;97.30;;;;;;4905826;29;20456;-71
2021/01/23 07:22:42;;;;;;;30.00;12.80;;;1.10;97.30;;;;;;4906223;29;20420;-72
2021/01/23 07:25:10;;;;;;;31.43;13.80;;;1.10;97.30;;;;;;4908855;29;20508;-74
2021/01/23 07:27:38;;;;;;;31.00;13.30;;;1.10;97.30;;;;;;4909407;29;20425;-71
2021/01/23 07:30:14;;;;;;;33.20;14.20;;;1.10;97.30;;;;;;4908324;29;20520;-72
2021/01/23 07:32:47;;;;;;;30.40;13.63;;;1.10;97.30;;;;;;4907799;29;20815;-72
2021/01/23 07:35:17;;;;;;;33.50;13.27;;;1.10;97.30;;;;;;4909922;29;20425;-72
2021/01/23 07:37:51;;;;;;;30.30;14.10;;;1.10;97.30;;;;;;4906745;29;20420;-72
2021/01/23 07:40:22;;;;;;;28.73;14.33;;;1.10;97.30;;;;;;4910350;29;20428;-71
2021/01/23 07:42:50;;;;;;;33.60;15.93;;;1.10;97.30;;;;;;4908386;29;20440;-72
2021/01/23 07:45:20;;;;;;;29.93;14.53;;;1.10;97.30;;;;;;4908405;29;20424;-71
2021/01/23 07:48:04;;;;;;;32.07;13.67;;;1.10;97.30;;;;;;4909639;29;20424;-72
2021/01/23 07:50:41;;;;;;;35.83;14.07;;;1.10;97.30;;;;;;4899623;29;20558;-72
2021/01/23 07:53:18;;;;;;;30.30;13.77;;;1.10;97.30;;;;;;4898037;29;20946;-72
2021/01/23 07:55:45;;;;;;;31.87;14.60;;;1.10;97.30;;;;;;4899370;29;20777;-72
2021/01/23 07:58:12;;;;;;;34.50;14.80;;;1.10;97.30;;;;;;4910912;29;20414;-72
2021/01/23 08:00:38;;;;;;;27.77;13.70;;;1.10;97.30;;;;;;4907927;29;20539;-73
2021/01/23 08:03:05;;;;;;;30.13;13.23;;;1.10;97.30;;;;;;4905933;29;20436;-72
2021/01/23 08:05:51;;;;;;;29.93;12.57;;;1.10;97.30;;;;;;4908339;29;20459;-73
2021/01/23 08:08:40;;;;;;;32.80;14.20;;;1.10;97.30;;;;;;4908325;29;20431;-72
2021/01/23 08:11:08;;;;;;;28.53;13.87;;;1.10;97.30;;;;;;4908770;29;20553;-72
2021/01/23 08:13:39;;;;;;;28.40;13.23;;;1.10;97.30;;;;;;4908619;29;20537;-72
2021/01/23 08:16:24;;;;;;;27.43;12.40;;;1.10;97.30;;;;;;4909823;29;20424;-72
2021/01/23 08:19:05;;;;;;;29.73;13.07;;;1.10;97.30;;;;;;4896515;29;20452;-72
2021/01/23 08:21:31;;;;;;;23.60;12.90;;;1.10;97.30;;;;;;4895993;29;20560;-73
2021/01/23 08:23:59;;;;;;;29.20;12.63;;;1.10;97.30;;;;;;4898340;29;20432;-72
2021/01/23 08:26:40;;;;;;;29.00;13.80;;;1.10;97.30;;;;;;4898949;29;20550;-72
2021/01/23 08:29:06;;;;;;;34.87;14.90;;;1.10;97.30;;;;;;4897358;29;20428;-72
2021/01/23 08:31:32;;;;;;;30.43;14.33;;;1.10;97.30;;;;;;4900717;29;20472;-72
2021/01/23 08:33:58;;;;;;;30.37;15.37;;;1.10;97.30;;;;;;4897570;29;20177;-72
2021/01/23 08:36:32;;;;;;;30.27;13.80;;;1.20;97.30;;;;;;4896109;29;20409;-72
2021/01/23 08:39:05;;;;;;;28.17;14.10;;;1.20;97.30;;;;;;4899021;29;20426;-73
2021/01/23 08:41:35;;;;;;;32.00;15.07;;;1.20;97.30;;;;;;4897072;29;20552;-72
2021/01/23 08:44:02;;;;;;;28.90;12.97;;;1.10;97.30;;;;;;4903400;29;20448;-73
2021/01/23 08:46:27;;;;;;;26.47;13.20;;;1.20;97.30;;;;;;4898410;29;20422;-72
2021/01/23 08:48:55;;;;;;;23.33;12.70;;;1.10;97.30;;;;;;4898194;29;20448;-72
2021/01/23 08:51:20;;;;;;;27.10;13.17;;;1.10;97.30;;;;;;4896700;29;20682;-72
2021/01/23 08:53:46;;;;;;;28.87;12.90;;;1.10;97.30;;;;;;4898156;29;20424;-72
2021/01/23 08:56:13;;;;;;;27.90;12.83;;;1.20;97.30;;;;;;4897315;29;20228;-72
2021/01/23 08:58:39;;;;;;;27.97;12.00;;;1.20;97.30;;;;;;4898282;29;20601;-71
2021/01/23 09:01:04;;;;;;;27.93;12.10;;;1.20;97.30;;;;;;4897222;29;21019;-72
2021/01/23 09:03:30;;;;;;;24.17;11.93;;;1.20;97.30;;;;;;4897614;29;20670;-72
2021/01/23 09:05:56;;;;;;;24.90;12.30;;;1.20;97.30;;;;;;4896674;29;20260;-72
2021/01/23 09:08:22;;;;;;;23.50;11.27;;;1.20;97.30;;;;;;4898534;29;20236;-73
2021/01/23 09:10:48;;;;;;;23.00;11.00;;;1.20;97.30;;;;;;4896823;29;20201;-73
2021/01/23 09:13:13;;;;;;;24.30;11.70;;;1.30;97.30;;;;;;4896985;29;21007;-73
2021/01/23 09:15:39;;;;;;;24.43;12.10;;;1.20;97.30;;;;;;4896830;29;20508;-73
2021/01/23 09:18:05;;;;;;;30.70;12.63;;;1.30;97.30;;;;;;4896853;29;20177;-73
2021/01/23 09:20:31;;;;;;;25.97;11.77;;;1.30;97.30;;;;;;4897023;29;20177;-73
2021/01/23 09:22:57;;;;;;;27.30;12.60;;;1.30;97.30;;;;;;4896774;29;21037;-74
2021/01/23 09:25:24;;;;;;;30.47;13.27;;;1.30;97.30;;;;;;4896581;29;20472;-73
2021/01/23 09:27:50;;;;;;;27.30;13.73;;;1.30;97.30;;;;;;4896875;29;20203;-73
2021/01/23 09:30:16;;;;;;;26.47;12.60;;;1.30;97.30;;;;;;4896237;29;21002;-74
2021/01/23 09:32:43;;;;;;;32.20;14.97;;;1.40;97.30;;;;;;4896031;29;20217;-73
2021/01/23 09:35:12;;;;;;;26.00;12.30;;;1.40;97.30;;;;;;4896342;29;20412;-73
2021/01/23 09:37:39;;;;;;;31.70;14.60;;;1.40;97.30;;;;;;4895124;29;20445;-73
2021/01/23 09:40:06;;;;;;;27.37;13.37;;;1.50;97.30;;;;;;4896486;29;20457;-73
2021/01/23 09:42:32;;;;;;;27.13;12.57;;;1.50;97.30;;;;;;4896786;29;20456;-74
2021/01/23 09:44:58;;;;;;;28.57;12.93;;;1.50;97.30;;;;;;4896937;29;20432;-73
2021/01/23 09:47:24;;;;;;;28.80;12.53;;;1.50;97.30;;;;;;4898078;29;20686;-72
2021/01/23 09:49:50;;;;;;;34.30;14.33;;;1.50;97.30;;;;;;4896749;29;20460;-74
2021/01/23 09:52:15;;;;;;;33.70;14.30;;;1.60;97.30;;;;;;4896318;29;20561;-73
2021/01/23 09:54:41;;;;;;;31.67;13.63;;;1.50;97.30;;;;;;4896560;29;20185;-73
2021/01/23 09:57:07;;;;;;;39.50;16.00;;;1.60;97.30;;;;;;4896275;29;20276;-72
2021/01/23 09:59:33;;;;;;;33.87;14.67;;;1.60;97.30;;;;;;4896333;29;20433;-71
2021/01/23 10:01:59;;;;;;;36.43;14.60;;;1.60;97.30;;;;;;4897365;29;20228;-71
2021/01/23 10:04:25;;;;;;;32.67;14.03;;;1.60;97.30;;;;;;4896537;29;20425;-71
2021/01/23 10:06:51;;;;;;;33.10;14.20;;;1.70;97.30;;;;;;4896203;29;20430;-71
2021/01/23 10:09:17;;;;;;;37.80;15.80;;;1.70;97.30;;;;;;4896321;29;20444;-70
2021/01/23 10:11:44;;;;;;;31.23;13.97;;;1.70;97.30;;;;;;4897178;29;20307;-70
2021/01/23 10:14:09;;;;;;;32.40;15.63;;;1.70;97.30;;;;;;4897290;29;20417;-70
2021/01/23 10:16:35;;;;;;;34.80;14.40;;;1.80;97.30;;;;;;4896905;29;20930;-70
2021/01/23 10:19:04;;;;;;;33.67;13.97;;;1.90;97.30;;;;;;4896743;29;20177;-72
2021/01/23 10:21:30;;;;;;;30.20;14.20;;;1.90;97.30;;;;;;4896746;29;20205;-69
2021/01/23 10:23:56;;;;;;;36.43;13.60;;;2.00;97.30;;;;;;4896328;29;20420;-69
2021/01/23 10:26:24;;;;;;;30.23;13.87;;;2.00;97.30;;;;;;4897579;29;20436;-69
2021/01/23 10:28:50;;;;;;;37.73;15.40;;;2.10;97.30;;;;;;4896647;29;20429;-69
2021/01/23 10:31:15;;;;;;;30.37;13.67;;;2.10;97.30;;;;;;4896586;29;20493;-69
2021/01/23 10:33:41;;;;;;;36.70;13.90;;;2.20;97.30;;;;;;4897740;29;20668;-69
2021/01/23 10:36:07;;;;;;;39.73;16.47;;;2.20;97.30;;;;;;4897521;29;20534;-69
2021/01/23 10:38:32;;;;;;;35.80;14.20;;;2.20;97.30;;;;;;4895200;29;20594;-69
2021/01/23 10:40:58;;;;;;;33.93;14.00;;;2.20;97.30;;;;;;4896356;29;20201;-69
2021/01/23 10:43:24;;;;;;;35.77;13.27;;;2.20;97.30;;;;;;4897189;29;20173;-68
2021/01/23 10:45:49;;;;;;;35.00;13.93;;;2.20;97.30;;;;;;4900286;29;20200;-68
2021/01/23 10:48:15;;;;;;;29.70;13.93;;;2.30;97.30;;;;;;4899225;29;20542;-68
2021/01/23 10:50:42;;;;;;;30.53;12.67;;;2.40;97.30;;;;;;4898858;29;20590;-68
2021/01/23 10:53:08;;;;;;;32.43;13.87;;;2.40;97.30;;;;;;4899418;29;20225;-68
2021/01/23 10:55:33;;;;;;;34.00;12.47;;;2.50;97.30;;;;;;4899241;29;20417;-68
2021/01/23 10:57:59;;;;;;;28.97;12.60;;;2.60;97.30;;;;;;4899218;29;20185;-68
2021/01/23 11:00:25;;;;;;;28.47;12.40;;;2.60;97.30;;;;;;4899824;29;20181;-68
2021/01/23 11:02:51;;;;;;;28.20;11.20;;;2.60;97.30;;;;;;4900249;29;20197;-68
2021/01/23 11:05:16;;;;;;;27.00;11.43;;;2.70;97.30;;;;;;4899073;29;20659;-68
2021/01/23 11:07:42;;;;;;;25.73;11.17;;;2.70;97.30;;;;;;4900139;29;20184;-69
2021/01/23 11:10:09;;;;;;;31.03;11.67;;;2.70;97.30;;;;;;4901054;29;20182;-69
2021/01/23 11:12:35;;;;;;;24.90;10.60;;;2.70;97.30;;;;;;4898378;29;20249;-69
2021/01/23 11:15:00;;;;;;;30.00;11.40;;;2.80;97.30;;;;;;4899027;29;20453;-69
2021/01/23 11:17:26;;;;;;;22.77;10.07;;;2.80;97.30;;;;;;4899225;29;20944;-69
2021/01/23 11:19:52;;;;;;;22.93;10.00;;;2.80;97.30;;;;;;4899846;29;20212;-70
2021/01/23 11:22:18;;;;;;;18.33;9.17;;;2.80;97.30;;;;;;4898483;29;20228;-69
2021/01/23 11:24:43;;;;;;;15.20;7.33;;;2.80;97.30;;;;;;4898875;29;20212;-69
2021/01/23 11:27:09;;;;;;;19.17;7.80;;;2.80;97.30;;;;;;4900125;29;20189;-69
2021/01/23 11:29:35;;;;;;;21.77;7.73;;;2.80;97.30;;;;;;4899907;29;20640;-69
2021/01/23 11:32:04;;;;;;;16.13;7.83;;;2.80;97.30;;;;;;4897978;29;20598;-70
2021/01/23 11:34:29;;;;;;;17.93;8.37;;;2.70;97.30;;;;;;4900094;29;20184;-69
2021/01/23 11:36:55;;;;;;;15.60;7.93;;;2.70;97.30;;;;;;4899667;29;20895;-69
2021/01/23 11:39:21;;;;;;;21.53;8.87;;;2.70;97.30;;;;;;4898305;29;20678;-68
2021/01/23 11:41:47;;;;;;;17.20;8.30;;;2.70;97.30;;;;;;4898212;29;20201;-68
2021/01/23 11:44:13;;;;;;;17.73;8.40;;;2.70;97.30;;;;;;4899566;29;20417;-68
2021/01/23 11:46:38;;;;;;;20.50;8.53;;;2.80;97.30;;;;;;4898294;29;20444;-68
2021/01/23 11:49:04;;;;;;;20.83;10.23;;;2.80;97.30;;;;;;4899435;29;20317;-69
2021/01/23 11:51:30;;;;;;;21.00;8.97;;;2.80;97.30;;;;;;4897953;29;20247;-68
2021/01/23 11:53:58;;;;;;;20.63;9.40;;;2.90;97.30;;;;;;4898107;29;20422;-68
2021/01/23 11:56:24;;;;;;;17.43;8.80;;;3.00;97.30;;;;;;4897957;29;20954;-69
2021/01/23 11:58:50;;;;;;;23.73;9.70;;;3.00;97.30;;;;;;4897969;29;20426;-69
2021/01/23 12:01:16;;;;;;;22.57;10.13;;;3.10;97.30;;;;;;4898189;29;20212;-69
2021/01/23 12:03:45;;;;;;;23.07;10.40;;;3.20;97.30;;;;;;4906993;29;20903;-69
2021/01/23 12:06:11;;;;;;;24.13;11.20;;;3.30;97.30;;;;;;4905968;29;20428;-70
2021/01/23 12:08:36;;;;;;;29.67;12.10;;;3.30;97.30;;;;;;4917871;29;20412;-69
2021/01/23 12:11:02;;;;;;;20.27;9.33;;;3.40;97.30;;;;;;4916530;29;20248;-69
2021/01/23 12:13:28;;;;;;;18.53;9.77;;;3.40;97.30;;;;;;4916947;29;20351;-69
2021/01/23 12:15:54;;;;;;;19.30;9.60;;;3.40;97.30;;;;;;4916806;29;20184;-69
2021/01/23 12:18:20;;;;;;;17.30;9.93;;;3.50;97.30;;;;;;4916417;29;20547;-69
2021/01/23 12:20:46;;;;;;;25.00;9.80;;;3.50;97.30;;;;;;4916267;29;20444;-69
2021/01/23 12:23:11;;;;;;;24.60;11.47;;;3.60;97.30;;;;;;4916184;29;20421;-70
2021/01/23 12:25:37;;;;;;;18.67;9.70;;;3.70;97.30;;;;;;4916644;29;20428;-69
2021/01/23 12:28:03;;;;;;;22.13;9.67;;;3.70;97.30;;;;;;4916449;29;20185;-69
2021/01/23 12:30:30;;;;;;;30.00;10.90;;;3.80;97.30;;;;;;4916096;29;20180;-70
2021/01/23 12:32:56;;;;;;;24.07;10.67;;;3.90;97.30;;;;;;4900103;29;20461;-69
2021/01/23 12:35:21;;;;;;;23.50;12.20;;;3.90;97.30;;;;;;4897274;29;20445;-69
2021/01/23 12:37:47;;;;;;;28.03;12.40;;;3.90;97.30;;;;;;4897417;29;20936;-69
2021/01/23 12:40:14;;;;;;;23.13;11.57;;;3.90;97.30;;;;;;4898424;29;20248;-69
2021/01/23 12:42:40;;;;;;;22.30;11.70;;;3.90;97.30;;;;;;4897076;29;20195;-69
2021/01/23 12:45:08;;;;;;;27.00;11.37;;;3.90;97.30;;;;;;4898915;29;20414;-69
2021/01/23 12:47:34;;;;;;;23.13;12.10;;;4.00;97.30;;;;;;4897552;29;20453;-69
2021/01/23 12:50:00;;;;;;;22.33;11.80;;;4.00;97.30;;;;;;4898132;29;20832;-69
2021/01/23 12:52:25;;;;;;;19.30;10.50;;;4.00;97.30;;;;;;4896198;29;20472;-69
2021/01/23 12:54:51;;;;;;;15.27;8.27;;;4.00;97.30;;;;;;4896479;29;20773;-69
2021/01/23 12:57:17;;;;;;;19.20;9.10;;;4.00;97.30;;;;;;4898319;29;20197;-69
2021/01/23 12:59:43;;;;;;;15.63;8.63;;;4.00;97.30;;;;;;4897144;29;20729;-69
2021/01/23 13:02:10;;;;;;;21.10;9.63;;;4.00;97.30;;;;;;4895526;29;20560;-69
2021/01/23 13:04:35;;;;;;;17.17;9.10;;;4.00;97.30;;;;;;4896631;29;20547;-69
2021/01/23 13:07:01;;;;;;;20.40;10.87;;;3.90;97.30;;;;;;4896337;29;20944;-69
2021/01/23 13:09:27;;;;;;;23.40;11.63;;;3.90;97.30;;;;;;4896783;29;20185;-69
2021/01/23 13:11:53;;;;;;;22.03;11.50;;;3.80;97.30;;;;;;4896103;29;20537;-69
2021/01/23 13:14:18;;;;;;;25.77;12.20;;;3.70;97.30;;;;;;4896592;29;20185;-69
2021/01/23 13:16:44;;;;;;;29.40;12.53;;;3.70;97.30;;;;;;4897981;29;20174;-69
2021/01/23 13:19:11;;;;;;;25.53;11.40;;;3.80;97.30;;;;;;4896503;29;20276;-69
2021/01/23 13:21:36;;;;;;;24.27;9.97;;;3.70;97.30;;;;;;4897578;29;20437;-69
2021/01/23 13:24:03;;;;;;;29.20;12.30;;;3.60;97.30;;;;;;4896228;29;20524;-69
2021/01/23 13:26:28;;;;;;;33.33;11.40;;;3.60;97.30;;;;;;4897778;29;20185;-69
2021/01/23 13:28:54;;;;;;;23.37;11.70;;;3.60;97.30;;;;;;4897916;29;20420;-69
2021/01/23 13:31:25;;;;;;;23.97;11.70;;;3.60;97.30;;;;;;4895551;29;20255;-70
2021/01/23 13:33:53;;;;;;;23.07;10.90;;;3.70;97.30;;;;;;4896268;29;20417;-69
2021/01/23 13:36:19;;;;;;;32.03;11.37;;;3.80;97.30;;;;;;4897119;29;20480;-71
2021/01/23 13:38:44;;;;;;;21.50;10.40;;;3.90;97.30;;;;;;4896718;29;20509;-69
2021/01/23 13:41:10;;;;;;;22.90;11.00;;;3.90;97.30;;;;;;4895850;29;20448;-70
2021/01/23 13:43:39;;;;;;;24.00;12.20;;;4.00;97.30;;;;;;4897412;29;20192;-70
2021/01/23 13:46:05;;;;;;;22.83;11.93;;;4.00;97.30;;;;;;4897540;29;20275;-70
2021/01/23 13:48:31;;;;;;;22.83;11.93;;;4.00;97.30;;;;;;4896836;29;20433;-71
2021/01/23 13:50:56;;;;;;;28.83;11.50;;;4.00;97.30;;;;;;4896380;29;20437;-71
2021/01/23 13:53:22;;;;;;;28.93;12.30;;;4.00;97.30;;;;;;4897510;29;20208;-70
2021/01/23 13:55:48;;;;;;;24.77;12.37;;;4.00;97.30;;;;;;4895941;29;20189;-71
2021/01/23 13:58:14;;;;;;;24.10;11.10;;;3.90;97.30;;;;;;4897479;29;20209;-70
2021/01/23 14:00:39;;;;;;;24.53;11.93;;;3.90;97.30;;;;;;4897335;29;20205;-71
2021/01/23 14:03:05;;;;;;;24.90;10.70;;;3.80;97.30;;;;;;4896912;29;20201;-71
2021/01/23 14:05:31;;;;;;;29.80;11.77;;;3.80;97.30;;;;;;4896450;29;20534;-70
2021/01/23 14:07:56;;;;;;;43.07;12.47;;;3.70;97.30;;;;;;4896387;29;20191;-71
2021/01/23 14:10:23;;;;;;;22.40;12.60;;;3.50;97.30;;;;;;4896150;29;20217;-71
2021/01/23 14:12:49;;;;;;;29.07;11.87;;;3.40;97.30;;;;;;4896216;29;20645;-71
2021/01/23 14:15:15;;;;;;;30.47;11.70;;;3.20;97.30;;;;;;4897499;29;20504;-71
2021/01/23 14:17:41;;;;;;;24.97;12.13;;;3.20;97.30;;;;;;4897546;29;20248;-71
2021/01/23 14:20:07;;;;;;;20.70;10.57;;;3.20;97.30;;;;;;4898503;29;20923;-71
2021/01/23 14:22:33;;;;;;;26.80;12.10;;;3.20;97.30;;;;;;4899720;29;20666;-71
2021/01/23 14:24:59;;;;;;;29.73;13.73;;;3.10;97.30;;;;;;4900870;29;20480;-71
2021/01/23 14:27:24;;;;;;;20.70;12.17;;;3.20;97.30;;;;;;4899879;29;20588;-72
2021/01/23 14:29:50;;;;;;;26.23;12.47;;;3.20;97.30;;;;;;4900590;29;20223;-71
2021/01/23 14:32:18;;;;;;;25.83;13.03;;;3.20;97.30;;;;;;4900904;29;20221;-71
2021/01/23 14:34:48;;;;;;;29.00;14.20;;;3.20;97.30;;;;;;4900906;29;20265;-71
2021/01/23 14:37:13;;;;;;;26.73;12.50;;;3.10;97.30;;;;;;4899766;29;20461;-71
2021/01/23 14:39:39;;;;;;;29.70;11.60;;;3.10;97.30;;;;;;4899465;29;20509;-71
2021/01/23 14:42:05;;;;;;;23.27;12.33;;;3.00;97.30;;;;;;4899339;29;20683;-71
2021/01/23 14:44:31;;;;;;;26.73;12.80;;;3.00;97.30;;;;;;4900622;29;20413;-71
2021/01/23 14:46:58;;;;;;;29.97;12.80;;;2.90;97.30;;;;;;4899603;29;20489;-71
2021/01/23 14:49:25;;;;;;;28.73;12.80;;;2.90;97.30;;;;;;4899647;29;20793;-71
2021/01/23 14:51:51;;;;;;;28.10;11.83;;;2.80;97.30;;;;;;4899191;29;20556;-71
2021/01/23 14:54:16;;;;;;;29.27;13.47;;;2.80;97.30;;;;;;4901281;29;20512;-72
2021/01/23 14:56:43;;;;;;;28.03;12.93;;;2.70;97.30;;;;;;4901433;29;20197;-72
2021/01/23 14:59:09;;;;;;;27.40;13.00;;;2.70;97.30;;;;;;4901784;29;20189;-72
2021/01/23 15:01:35;;;;;;;27.30;14.43;;;2.80;97.30;;;;;;4896622;29;20472;-72
2021/01/23 15:04:05;;;;;;;29.80;13.27;;;2.70;97.30;;;;;;4900279;29;20185;-72
2021/01/23 15:06:31;;;;;;;39.20;13.77;;;2.70;97.30;;;;;;4899222;29;20441;-71
2021/01/23 15:08:57;;;;;;;28.67;13.10;;;2.70;97.30;;;;;;4900133;29;20429;-71
2021/01/23 15:11:24;;;;;;;30.53;14.20;;;2.70;97.30;;;;;;4897912;29;20555;-71
2021/01/23 15:13:50;;;;;;;26.07;12.47;;;2.60;97.30;;;;;;4899076;29;20522;-71
2021/01/23 15:16:15;;;;;;;32.27;13.70;;;2.60;97.30;;;;;;4898859;29;20856;-71
2021/01/23 15:18:41;;;;;;;27.47;12.03;;;2.60;97.30;;;;;;4900243;29;20245;-71
2021/01/23 15:21:07;;;;;;;24.20;11.90;;;2.50;97.30;;;;;;4899692;29;20260;-71
2021/01/23 15:23:34;;;;;;;23.00;11.13;;;2.40;97.30;;;;;;4900596;29;20480;-71
2021/01/23 15:25:59;;;;;;;28.00;12.50;;;2.40;97.30;;;;;;4898785;29;20268;-71
2021/01/23 15:28:26;;;;;;;26.83;11.97;;;2.40;97.30;;;;;;4900024;29;20928;-71
2021/01/23 15:30:52;;;;;;;32.57;13.27;;;2.40;97.30;;;;;;4898022;29;20551;-71
2021/01/23 15:33:18;;;;;;;28.47;13.20;;;2.40;97.30;;;;;;4900056;29;20462;-71
2021/01/23 15:35:46;;;;;;;25.40;11.87;;;2.40;97.30;;;;;;4898597;29;20199;-70
2021/01/23 15:38:11;;;;;;;25.50;12.40;;;2.30;97.30;;;;;;4899453;29;20443;-72
2021/01/23 15:40:38;;;;;;;27.77;12.20;;;2.30;97.30;;;;;;4897765;29;20943;-71
2021/01/23 15:43:04;;;;;;;27.07;12.27;;;2.30;97.30;;;;;;4898694;29;20181;-71
2021/01/23 15:45:33;;;;;;;22.93;11.07;;;2.30;97.30;;;;;;4899530;29;20512;-71
2021/01/23 15:47:59;;;;;;;25.53;11.37;;;2.30;97.30;;;;;;4899769;29;20508;-71
2021/01/23 15:50:25;;;;;;;26.53;12.13;;;2.20;97.30;;;;;;4898407;29;20529;-71
2021/01/23 15:52:51;;;;;;;31.67;13.90;;;2.20;97.30;;;;;;4899371;29;20212;-71
2021/01/23 15:55:17;;;;;;;32.10;13.90;;;2.20;97.30;;;;;;4898028;29;20425;-71
2021/01/23 15:57:42;;;;;;;52.03;18.20;;;2.20;97.30;;;;;;4898327;29;20812;-71
2021/01/23 16:00:09;;;;;;;37.60;16.77;;;2.20;97.30;;;;;;4898391;29;20928;-71
2021/01/23 16:02:35;;;;;;;33.67;15.00;;;2.10;97.30;;;;;;4899187;29;20233;-71
2021/01/23 16:05:00;;;;;;;26.73;12.37;;;2.10;97.30;;;;;;4899253;29;20488;-71
2021/01/23 16:07:26;;;;;;;26.33;13.30;;;2.10;97.30;;;;;;4899251;29;20264;-71
2021/01/23 16:09:52;;;;;;;29.90;12.57;;;2.10;97.30;;;;;;4898994;29;20724;-71
2021/01/23 16:12:18;;;;;;;31.20;12.90;;;2.00;97.30;;;;;;4899125;29;20259;-71
2021/01/23 16:14:44;;;;;;;23.87;12.30;;;2.00;97.30;;;;;;4899209;29;20178;-71
2021/01/23 16:17:10;;;;;;;25.40;12.10;;;2.00;97.30;;;;;;4898365;29;20940;-71
2021/01/23 16:19:37;;;;;;;30.60;13.10;;;2.00;97.30;;;;;;4897849;29;20433;-71
2021/01/23 16:22:06;;;;;;;25.23;12.13;;;2.00;97.30;;;;;;4896988;29;20201;-71
2021/01/23 16:24:33;;;;;;;30.07;11.80;;;2.00;97.30;;;;;;4897196;29;20432;-71
2021/01/23 16:26:59;;;;;;;27.40;12.17;;;2.00;97.30;;;;;;4897506;29;20435;-71
2021/01/23 16:29:25;;;;;;;29.37;12.83;;;2.00;97.30;;;;;;4898225;29;20422;-71
2021/01/23 16:31:50;;;;;;;28.70;13.20;;;2.00;97.30;;;;;;4897557;29;20589;-71
2021/01/23 16:34:17;;;;;;;26.10;11.53;;;1.90;97.30;;;;;;4897748;29;20188;-71
2021/01/23 16:36:44;;;;;;;30.13;12.37;;;1.90;97.30;;;;;;4897651;29;20236;-72
2021/01/23 16:39:10;;;;;;;23.20;12.13;;;1.90;97.30;;;;;;4898713;29;20421;-73
2021/01/23 16:41:36;;;;;;;23.97;11.20;;;1.90;97.30;;;;;;4895789;29;20604;-72
2021/01/23 16:44:02;;;;;;;26.57;12.53;;;1.90;97.30;;;;;;4898644;29;20522;-73
2021/01/23 16:46:27;;;;;;;24.93;11.80;;;1.90;97.30;;;;;;4898902;29;20628;-73
2021/01/23 16:48:53;;;;;;;29.70;13.60;;;1.90;97.30;;;;;;4897448;29;20185;-72
2021/01/23 16:51:19;;;;;;;24.73;11.77;;;1.90;97.30;;;;;;4897708;29;20284;-72
2021/01/23 16:53:44;;;;;;;31.37;13.20;;;1.90;97.30;;;;;;4898448;29;20260;-73
2021/01/23 16:56:11;;;;;;;28.77;12.13;;;1.90;97.30;;;;;;4897226;29;20256;-72
2021/01/23 16:58:37;;;;;;;24.83;11.83;;;1.90;97.30;;;;;;4898648;29;20265;-72
2021/01/23 17:01:04;;;;;;;30.50;13.60;;;1.80;97.30;;;;;;4897933;29;20870;-73
2021/01/23 17:03:30;;;;;;;27.40;11.50;;;1.80;97.30;;;;;;4897340;29;20232;-73
2021/01/23 17:05:57;;;;;;;23.30;11.70;;;1.80;97.30;;;;;;4896988;29;20468;-72
2021/01/23 17:08:24;;;;;;;24.73;12.17;;;1.80;97.30;;;;;;4897157;29;20185;-72
2021/01/23 17:10:50;;;;;;;20.47;10.87;;;1.80;97.30;;;;;;4897888;29;20438;-73
2021/01/23 17:13:16;;;;;;;24.17;11.10;;;1.80;97.30;;;;;;4897130;29;20521;-73
2021/01/23 17:15:41;;;;;;;23.83;11.80;;;1.80;97.30;;;;;;4898244;29;20185;-73
2021/01/23 17:18:07;;;;;;;25.23;12.33;;;1.80;97.30;;;;;;4898400;29;20200;-73
2021/01/23 17:20:33;;;;;;;24.87;11.10;;;1.80;97.30;;;;;;4897980;29;20201;-72
2021/01/23 17:22:59;;;;;;;26.80;11.67;;;1.80;97.30;;;;;;4897021;29;20554;-72
2021/01/23 17:25:24;;;;;;;23.80;11.30;;;1.80;97.30;;;;;;4898056;29;20188;-72
2021/01/23 17:27:52;;;;;;;21.70;10.30;;;1.80;97.30;;;;;;4896785;29;20224;-72
2021/01/23 17:30:18;;;;;;;27.70;10.83;;;1.80;97.30;;;;;;4896488;29;20648;-72
2021/01/23 17:32:44;;;;;;;26.87;11.60;;;1.80;97.30;;;;;;4896095;29;20480;-72
2021/01/23 17:35:11;;;;;;;22.40;11.17;;;1.80;97.30;;;;;;4896737;29;20434;-71
2021/01/23 17:37:37;;;;;;;24.40;10.93;;;1.80;97.30;;;;;;4898047;29;20548;-72
2021/01/23 17:40:03;;;;;;;25.73;11.50;;;1.80;97.30;;;;;;4898445;29;20424;-72
2021/01/23 17:42:29;;;;;;;22.90;10.93;;;1.80;97.30;;;;;;4897330;29;20201;-72
2021/01/23 17:44:54;;;;;;;20.77;11.57;;;1.80;97.30;;;;;;4897825;29;20427;-74
2021/01/23 17:47:20;;;;;;;26.00;11.23;;;1.80;97.30;;;;;;4896631;29;20237;-74
2021/01/23 17:49:46;;;;;;;24.90;11.80;;;1.80;97.30;;;;;;4896849;29;20240;-74
2021/01/23 17:52:11;;;;;;;27.23;12.87;;;1.80;97.30;;;;;;4897427;29;20765;-73
2021/01/23 17:54:37;;;;;;;20.63;11.93;;;1.70;97.30;;;;;;4899892;29;20173;-73
2021/01/23 17:57:04;;;;;;;23.93;12.20;;;1.70;97.30;;;;;;4902408;29;20189;-74
2021/01/23 17:59:29;;;;;;;27.00;11.63;;;1.70;97.30;;;;;;4900401;29;20456;-73
2021/01/23 18:01:55;;;;;;;27.23;13.17;;;1.70;97.30;;;;;;4899795;29;20465;-72
2021/01/23 18:04:21;;;;;;;20.60;11.30;;;1.70;97.30;;;;;;4901851;29;20184;-73
2021/01/23 18:06:46;;;;;;;23.53;11.77;;;1.70;97.30;;;;;;4901528;29;20177;-73
2021/01/23 18:09:12;;;;;;;25.27;12.27;;;1.70;97.30;;;;;;4900517;29;20191;-72
2021/01/23 18:11:38;;;;;;;21.70;11.53;;;1.70;97.30;;;;;;4901346;29;20215;-72
2021/01/23 18:14:05;;;;;;;26.67;12.23;;;1.70;97.30;;;;;;4900319;29;20628;-73
2021/01/23 18:16:32;;;;;;;24.23;12.10;;;1.70;97.30;;;;;;4899986;29;20510;-73
2021/01/23 18:18:58;;;;;;;23.47;12.83;;;1.60;97.30;;;;;;4899505;29;20484;-73
2021/01/23 18:21:24;;;;;;;20.30;11.23;;;1.60;97.30;;;;;;4898926;29;20874;-73
2021/01/23 18:23:51;;;;;;;25.17;12.63;;;1.60;97.30;;;;;;4899834;29;20422;-73
2021/01/23 18:26:17;;;;;;;24.80;13.20;;;1.50;97.30;;;;;;4900003;29;20432;-73
2021/01/23 18:28:43;;;;;;;28.47;14.60;;;1.50;97.30;;;;;;4901002;29;20900;-72
2021/01/23 18:31:09;;;;;;;29.20;13.87;;;1.50;97.30;;;;;;4898876;29;20444;-73
2021/01/23 18:33:35;;;;;;;28.23;12.83;;;1.50;97.30;;;;;;4899723;29;20425;-73
2021/01/23 18:36:01;;;;;;;24.30;12.13;;;1.50;97.30;;;;;;4899709;29;20197;-72
2021/01/23 18:38:27;;;;;;;22.73;13.17;;;1.40;97.30;;;;;;4899410;29;20449;-72
2021/01/23 18:40:53;;;;;;;24.80;12.10;;;1.40;97.30;;;;;;4899135;29;20212;-72